Terminal Aerodrome Forecast
Issued by NWS Bismarck, ND

Home | Current Version | Previous Version | Graphics & Text | Print | Product List | Glossary On
Versions: 1 2 3 4 5 6 7 8 9 10 11 12 13 14 15 16 17 18
000
FTUS43 KBIS 272327
TAFISN
TAF
KISN 272327Z 2800/2824 11015KT P6SM FEW070
     FM280100 12012KT P6SM SHRA VCTS OVC040CB
     FM280200 11015KT 5SM TSRA OVC050CB
     FM280500 31015KT P6SM -SHRA VCTS BKN080CB
     FM280700 24015KT P6SM SCT035 SCT080
     FM281400 23020G35KT P6SM BKN050
     FM281800 28033G45KT P6SM -SHRA OVC025=

USA.gov is the U.S. government's official web portal to all federal, state and local government web resources and services.